sensor_id;sensor_type;location;lat;lon;timestamp;P1;durP1;ratioP1;P2;durP2;ratioP2
66429;SDS011;53242;51.694;10.006;2023-03-14T00:00:12;1.95;;;0.80;;
66429;SDS011;53242;51.694;10.006;2023-03-14T00:04:58;2.33;;;1.00;;
66429;SDS011;53242;51.694;10.006;2023-03-14T00:07:21;2.03;;;0.50;;
66429;SDS011;53242;51.694;10.006;2023-03-14T00:09:43;1.02;;;0.63;;
66429;SDS011;53242;51.694;10.006;2023-03-14T00:12:06;4.53;;;0.80;;
66429;SDS011;53242;51.694;10.006;2023-03-14T00:14:29;1.83;;;0.80;;
66429;SDS011;53242;51.694;10.006;2023-03-14T00:16:53;1.50;;;0.77;;
66429;SDS011;53242;51.694;10.006;2023-03-14T00:19:15;2.72;;;0.73;;
66429;SDS011;53242;51.694;10.006;2023-03-14T00:21:37;3.15;;;0.80;;
66429;SDS011;53242;51.694;10.006;2023-03-14T00:24:00;2.47;;;0.85;;
66429;SDS011;53242;51.694;10.006;2023-03-14T00:26:22;2.50;;;0.90;;
66429;SDS011;53242;51.694;10.006;2023-03-14T00:28:45;1.50;;;0.70;;
66429;SDS011;53242;51.694;10.006;2023-03-14T00:31:08;1.15;;;0.60;;
66429;SDS011;53242;51.694;10.006;2023-03-14T00:33:33;2.85;;;0.70;;
66429;SDS011;53242;51.694;10.006;2023-03-14T00:35:57;3.28;;;0.70;;
66429;SDS011;53242;51.694;10.006;2023-03-14T00:38:25;1.38;;;0.70;;
66429;SDS011;53242;51.694;10.006;2023-03-14T00:40:48;3.35;;;0.70;;
66429;SDS011;53242;51.694;10.006;2023-03-14T00:43:10;1.67;;;0.55;;
66429;SDS011;53242;51.694;10.006;2023-03-14T00:45:33;1.02;;;0.60;;
66429;SDS011;53242;51.694;10.006;2023-03-14T00:47:56;1.85;;;0.60;;
66429;SDS011;53242;51.694;10.006;2023-03-14T00:50:20;0.88;;;0.52;;
66429;SDS011;53242;51.694;10.006;2023-03-14T00:52:42;1.42;;;0.70;;
66429;SDS011;53242;51.694;10.006;2023-03-14T00:55:05;0.50;;;0.35;;
66429;SDS011;53242;51.694;10.006;2023-03-14T00:57:27;2.00;;;0.32;;
66429;SDS011;53242;51.694;10.006;2023-03-14T00:59:50;2.72;;;0.70;;
66429;SDS011;53242;51.694;10.006;2023-03-14T01:02:13;2.72;;;0.80;;
66429;SDS011;53242;51.694;10.006;2023-03-14T01:04:35;0.77;;;0.50;;
66429;SDS011;53242;51.694;10.006;2023-03-14T01:06:59;3.55;;;1.05;;
66429;SDS011;53242;51.694;10.006;2023-03-14T01:09:22;3.10;;;0.52;;
66429;SDS011;53242;51.694;10.006;2023-03-14T01:11:44;1.30;;;0.60;;
66429;SDS011;53242;51.694;10.006;2023-03-14T01:14:08;3.75;;;0.70;;
66429;SDS011;53242;51.694;10.006;2023-03-14T01:16:33;1.30;;;0.38;;
66429;SDS011;53242;51.694;10.006;2023-03-14T01:18:57;1.15;;;0.32;;
66429;SDS011;53242;51.694;10.006;2023-03-14T01:21:21;2.20;;;0.68;;
66429;SDS011;53242;51.694;10.006;2023-03-14T01:23:45;1.63;;;0.50;;
66429;SDS011;53242;51.694;10.006;2023-03-14T01:26:10;1.83;;;0.60;;
66429;SDS011;53242;51.694;10.006;2023-03-14T01:28:34;2.03;;;0.75;;
66429;SDS011;53242;51.694;10.006;2023-03-14T01:31:01;1.42;;;0.50;;
66429;SDS011;53242;51.694;10.006;2023-03-14T01:33:24;3.47;;;0.77;;
66429;SDS011;53242;51.694;10.006;2023-03-14T01:35:49;2.95;;;0.50;;
66429;SDS011;53242;51.694;10.006;2023-03-14T01:38:12;2.30;;;0.60;;
66429;SDS011;53242;51.694;10.006;2023-03-14T01:40:41;1.40;;;0.50;;
66429;SDS011;53242;51.694;10.006;2023-03-14T01:43:13;1.33;;;0.60;;
66429;SDS011;53242;51.694;10.006;2023-03-14T01:48:33;1.08;;;0.55;;
66429;SDS011;53242;51.694;10.006;2023-03-14T01:50:59;2.05;;;0.70;;
66429;SDS011;53242;51.694;10.006;2023-03-14T01:53:23;0.73;;;0.40;;
66429;SDS011;53242;51.694;10.006;2023-03-14T01:55:46;1.75;;;0.47;;
66429;SDS011;53242;51.694;10.006;2023-03-14T01:58:08;1.35;;;0.63;;
66429;SDS011;53242;51.694;10.006;2023-03-14T02:00:31;1.88;;;0.60;;
66429;SDS011;53242;51.694;10.006;2023-03-14T02:03:02;1.75;;;0.50;;
66429;SDS011;53242;51.694;10.006;2023-03-14T02:05:34;1.23;;;0.60;;
66429;SDS011;53242;51.694;10.006;2023-03-14T02:08:13;2.05;;;0.60;;
66429;SDS011;53242;51.694;10.006;2023-03-14T02:10:45;2.20;;;0.70;;
66429;SDS011;53242;51.694;10.006;2023-03-14T02:13:11;2.65;;;0.90;;
66429;SDS011;53242;51.694;10.006;2023-03-14T02:15:54;0.68;;;0.43;;
66429;SDS011;53242;51.694;10.006;2023-03-14T02:18:35;1.60;;;0.63;;
66429;SDS011;53242;51.694;10.006;2023-03-14T02:26:38;2.55;;;0.75;;
66429;SDS011;53242;51.694;10.006;2023-03-14T02:29:05;2.25;;;1.00;;
66429;SDS011;53242;51.694;10.006;2023-03-14T02:31:28;1.08;;;0.68;;
66429;SDS011;53242;51.694;10.006;2023-03-14T02:33:50;1.80;;;0.70;;
66429;SDS011;53242;51.694;10.006;2023-03-14T02:36:13;2.10;;;0.60;;
66429;SDS011;53242;51.694;10.006;2023-03-14T02:38:39;2.67;;;1.00;;
66429;SDS011;53242;51.694;10.006;2023-03-14T02:41:08;1.48;;;0.90;;
66429;SDS011;53242;51.694;10.006;2023-03-14T02:43:36;2.40;;;0.60;;
66429;SDS011;53242;51.694;10.006;2023-03-14T02:46:03;2.08;;;0.80;;
66429;SDS011;53242;51.694;10.006;2023-03-14T02:48:29;4.53;;;1.20;;
66429;SDS011;53242;51.694;10.006;2023-03-14T02:50:56;1.95;;;0.90;;
66429;SDS011;53242;51.694;10.006;2023-03-14T02:53:21;2.17;;;1.02;;
66429;SDS011;53242;51.694;10.006;2023-03-14T02:55:50;3.40;;;1.20;;
66429;SDS011;53242;51.694;10.006;2023-03-14T03:00:38;5.53;;;1.20;;
66429;SDS011;53242;51.694;10.006;2023-03-14T03:03:03;2.95;;;0.95;;
66429;SDS011;53242;51.694;10.006;2023-03-14T03:07:49;3.03;;;1.00;;
66429;SDS011;53242;51.694;10.006;2023-03-14T03:10:12;3.47;;;0.90;;
66429;SDS011;53242;51.694;10.006;2023-03-14T03:12:34;4.28;;;0.98;;
66429;SDS011;53242;51.694;10.006;2023-03-14T03:14:57;5.82;;;1.02;;
66429;SDS011;53242;51.694;10.006;2023-03-14T03:17:19;3.60;;;1.33;;
66429;SDS011;53242;51.694;10.006;2023-03-14T03:19:42;3.63;;;1.30;;
66429;SDS011;53242;51.694;10.006;2023-03-14T03:24:28;2.50;;;1.13;;
66429;SDS011;53242;51.694;10.006;2023-03-14T03:26:51;3.33;;;1.17;;
66429;SDS011;53242;51.694;10.006;2023-03-14T03:29:14;3.78;;;1.40;;
66429;SDS011;53242;51.694;10.006;2023-03-14T03:31:37;3.92;;;1.30;;
66429;SDS011;53242;51.694;10.006;2023-03-14T03:34:00;4.85;;;1.20;;
66429;SDS011;53242;51.694;10.006;2023-03-14T03:36:25;6.15;;;1.38;;
66429;SDS011;53242;51.694;10.006;2023-03-14T03:38:48;2.83;;;0.80;;
66429;SDS011;53242;51.694;10.006;2023-03-14T03:41:10;4.03;;;1.27;;
66429;SDS011;53242;51.694;10.006;2023-03-14T03:43:34;2.67;;;0.90;;
66429;SDS011;53242;51.694;10.006;2023-03-14T03:45:58;5.00;;;0.80;;
66429;SDS011;53242;51.694;10.006;2023-03-14T03:48:24;3.55;;;0.88;;
66429;SDS011;53242;51.694;10.006;2023-03-14T03:50:46;3.13;;;0.90;;
66429;SDS011;53242;51.694;10.006;2023-03-14T03:53:11;2.28;;;0.68;;
66429;SDS011;53242;51.694;10.006;2023-03-14T03:55:34;2.30;;;0.80;;
66429;SDS011;53242;51.694;10.006;2023-03-14T03:57:56;2.80;;;0.85;;
66429;SDS011;53242;51.694;10.006;2023-03-14T04:00:19;4.18;;;1.20;;
66429;SDS011;53242;51.694;10.006;2023-03-14T04:02:41;5.50;;;1.25;;
66429;SDS011;53242;51.694;10.006;2023-03-14T04:05:06;3.63;;;1.13;;
66429;SDS011;53242;51.694;10.006;2023-03-14T04:07:31;3.78;;;1.20;;
66429;SDS011;53242;51.694;10.006;2023-03-14T04:09:54;3.13;;;1.13;;
66429;SDS011;53242;51.694;10.006;2023-03-14T04:12:29;3.53;;;0.88;;
66429;SDS011;53242;51.694;10.006;2023-03-14T04:15:01;3.58;;;1.15;;
66429;SDS011;53242;51.694;10.006;2023-03-14T04:17:23;2.95;;;0.88;;
66429;SDS011;53242;51.694;10.006;2023-03-14T04:19:46;3.17;;;0.80;;
66429;SDS011;53242;51.694;10.006;2023-03-14T04:22:11;2.40;;;0.90;;
66429;SDS011;53242;51.694;10.006;2023-03-14T04:24:42;3.13;;;1.23;;
66429;SDS011;53242;51.694;10.006;2023-03-14T04:27:04;1.77;;;1.05;;
66429;SDS011;53242;51.694;10.006;2023-03-14T04:29:28;2.17;;;0.75;;
66429;SDS011;53242;51.694;10.006;2023-03-14T04:31:51;1.90;;;0.82;;
66429;SDS011;53242;51.694;10.006;2023-03-14T04:34:13;2.65;;;0.70;;
66429;SDS011;53242;51.694;10.006;2023-03-14T04:36:42;1.33;;;0.80;;
66429;SDS011;53242;51.694;10.006;2023-03-14T04:39:10;6.50;;;1.10;;
66429;SDS011;53242;51.694;10.006;2023-03-14T04:41:36;4.20;;;0.77;;
66429;SDS011;53242;51.694;10.006;2023-03-14T04:43:59;3.83;;;0.90;;
66429;SDS011;53242;51.694;10.006;2023-03-14T04:46:22;1.83;;;0.73;;
66429;SDS011;53242;51.694;10.006;2023-03-14T04:48:44;4.18;;;1.10;;
66429;SDS011;53242;51.694;10.006;2023-03-14T04:51:07;2.55;;;0.90;;
66429;SDS011;53242;51.694;10.006;2023-03-14T04:53:30;3.58;;;0.93;;
66429;SDS011;53242;51.694;10.006;2023-03-14T04:55:54;2.78;;;0.65;;
66429;SDS011;53242;51.694;10.006;2023-03-14T04:58:19;1.63;;;0.80;;
66429;SDS011;53242;51.694;10.006;2023-03-14T05:00:44;2.78;;;0.90;;
66429;SDS011;53242;51.694;10.006;2023-03-14T05:03:20;3.47;;;0.80;;
66429;SDS011;53242;51.694;10.006;2023-03-14T05:06:03;3.05;;;1.20;;
66429;SDS011;53242;51.694;10.006;2023-03-14T05:08:46;1.13;;;0.70;;
66429;SDS011;53242;51.694;10.006;2023-03-14T05:11:18;3.05;;;0.90;;
66429;SDS011;53242;51.694;10.006;2023-03-14T05:14:03;2.63;;;0.85;;
66429;SDS011;53242;51.694;10.006;2023-03-14T05:16:38;2.85;;;1.13;;
66429;SDS011;53242;51.694;10.006;2023-03-14T05:19:33;2.53;;;0.98;;
66429;SDS011;53242;51.694;10.006;2023-03-14T05:22:11;4.57;;;0.93;;
66429;SDS011;53242;51.694;10.006;2023-03-14T05:24:52;4.38;;;1.08;;
66429;SDS011;53242;51.694;10.006;2023-03-14T05:27:24;3.33;;;0.70;;
66429;SDS011;53242;51.694;10.006;2023-03-14T05:30:05;4.45;;;1.20;;
66429;SDS011;53242;51.694;10.006;2023-03-14T05:32:47;2.90;;;0.95;;
66429;SDS011;53242;51.694;10.006;2023-03-14T05:35:32;1.67;;;0.60;;
66429;SDS011;53242;51.694;10.006;2023-03-14T05:38:13;1.92;;;0.52;;
66429;SDS011;53242;51.694;10.006;2023-03-14T05:40:51;0.98;;;0.30;;
66429;SDS011;53242;51.694;10.006;2023-03-14T05:43:31;0.60;;;0.40;;
66429;SDS011;53242;51.694;10.006;2023-03-14T05:46:14;1.23;;;0.95;;
66429;SDS011;53242;51.694;10.006;2023-03-14T05:48:48;3.92;;;0.75;;
66429;SDS011;53242;51.694;10.006;2023-03-14T05:51:37;6.13;;;1.00;;
66429;SDS011;53242;51.694;10.006;2023-03-14T05:54:24;4.75;;;1.30;;
66429;SDS011;53242;51.694;10.006;2023-03-14T05:56:58;2.45;;;0.95;;
66429;SDS011;53242;51.694;10.006;2023-03-14T05:59:39;5.28;;;1.08;;
66429;SDS011;53242;51.694;10.006;2023-03-14T06:02:09;5.45;;;1.10;;
66429;SDS011;53242;51.694;10.006;2023-03-14T06:04:43;3.90;;;1.23;;
66429;SDS011;53242;51.694;10.006;2023-03-14T06:07:05;6.05;;;1.50;;
66429;SDS011;53242;51.694;10.006;2023-03-14T06:09:28;7.97;;;1.10;;
66429;SDS011;53242;51.694;10.006;2023-03-14T06:11:53;7.63;;;2.08;;
66429;SDS011;53242;51.694;10.006;2023-03-14T06:14:16;3.35;;;1.00;;
66429;SDS011;53242;51.694;10.006;2023-03-14T06:16:42;4.28;;;1.02;;
66429;SDS011;53242;51.694;10.006;2023-03-14T06:19:05;1.92;;;0.90;;
66429;SDS011;53242;51.694;10.006;2023-03-14T06:21:28;5.43;;;1.10;;
66429;SDS011;53242;51.694;10.006;2023-03-14T06:23:51;3.17;;;0.80;;
66429;SDS011;53242;51.694;10.006;2023-03-14T06:26:15;4.22;;;1.00;;
66429;SDS011;53242;51.694;10.006;2023-03-14T06:28:38;2.88;;;1.08;;
66429;SDS011;53242;51.694;10.006;2023-03-14T06:31:01;6.72;;;1.50;;
66429;SDS011;53242;51.694;10.006;2023-03-14T06:33:28;7.32;;;1.65;;
66429;SDS011;53242;51.694;10.006;2023-03-14T06:35:50;5.03;;;1.08;;
66429;SDS011;53242;51.694;10.006;2023-03-14T06:38:13;5.05;;;1.38;;
66429;SDS011;53242;51.694;10.006;2023-03-14T06:40:36;4.38;;;1.00;;
66429;SDS011;53242;51.694;10.006;2023-03-14T06:43:03;4.90;;;1.13;;
66429;SDS011;53242;51.694;10.006;2023-03-14T06:45:27;2.50;;;0.80;;
66429;SDS011;53242;51.694;10.006;2023-03-14T06:47:51;2.05;;;0.80;;
66429;SDS011;53242;51.694;10.006;2023-03-14T06:50:17;5.28;;;1.33;;
66429;SDS011;53242;51.694;10.006;2023-03-14T06:52:41;4.05;;;1.08;;
66429;SDS011;53242;51.694;10.006;2023-03-14T06:55:09;3.42;;;0.93;;
66429;SDS011;53242;51.694;10.006;2023-03-14T06:57:32;2.53;;;0.77;;
66429;SDS011;53242;51.694;10.006;2023-03-14T06:59:54;2.95;;;0.73;;
66429;SDS011;53242;51.694;10.006;2023-03-14T07:02:17;2.95;;;0.80;;
66429;SDS011;53242;51.694;10.006;2023-03-14T07:04:40;2.20;;;0.90;;
66429;SDS011;53242;51.694;10.006;2023-03-14T07:07:03;4.82;;;0.80;;
66429;SDS011;53242;51.694;10.006;2023-03-14T07:09:29;3.28;;;0.75;;
66429;SDS011;53242;51.694;10.006;2023-03-14T07:11:55;10.10;;;1.00;;
66429;SDS011;53242;51.694;10.006;2023-03-14T07:14:17;2.53;;;0.82;;
66429;SDS011;53242;51.694;10.006;2023-03-14T07:16:40;4.00;;;0.70;;
66429;SDS011;53242;51.694;10.006;2023-03-14T07:19:04;9.32;;;1.00;;
66429;SDS011;53242;51.694;10.006;2023-03-14T07:21:27;2.88;;;0.70;;
66429;SDS011;53242;51.694;10.006;2023-03-14T07:23:50;5.53;;;0.82;;
66429;SDS011;53242;51.694;10.006;2023-03-14T07:26:13;2.67;;;0.50;;
66429;SDS011;53242;51.694;10.006;2023-03-14T07:28:41;2.22;;;0.93;;
66429;SDS011;53242;51.694;10.006;2023-03-14T07:31:08;2.42;;;0.60;;
66429;SDS011;53242;51.694;10.006;2023-03-14T07:33:31;1.10;;;0.50;;
66429;SDS011;53242;51.694;10.006;2023-03-14T07:35:53;2.20;;;0.93;;
66429;SDS011;53242;51.694;10.006;2023-03-14T07:38:16;3.45;;;1.35;;
66429;SDS011;53242;51.694;10.006;2023-03-14T07:40:59;4.97;;;1.40;;
66429;SDS011;53242;51.694;10.006;2023-03-14T07:43:28;2.13;;;0.70;;
66429;SDS011;53242;51.694;10.006;2023-03-14T07:45:56;3.20;;;0.77;;
66429;SDS011;53242;51.694;10.006;2023-03-14T07:48:18;3.85;;;0.98;;
66429;SDS011;53242;51.694;10.006;2023-03-14T07:50:41;5.53;;;1.00;;
66429;SDS011;53242;51.694;10.006;2023-03-14T07:53:03;2.30;;;0.63;;
66429;SDS011;53242;51.694;10.006;2023-03-14T07:55:25;1.42;;;0.63;;
66429;SDS011;53242;51.694;10.006;2023-03-14T07:57:48;4.15;;;0.77;;
66429;SDS011;53242;51.694;10.006;2023-03-14T08:00:10;1.20;;;0.68;;
66429;SDS011;53242;51.694;10.006;2023-03-14T08:02:36;2.03;;;0.80;;
66429;SDS011;53242;51.694;10.006;2023-03-14T08:04:58;0.85;;;0.65;;
66429;SDS011;53242;51.694;10.006;2023-03-14T08:07:21;1.65;;;0.70;;
66429;SDS011;53242;51.694;10.006;2023-03-14T08:09:43;1.80;;;0.63;;
66429;SDS011;53242;51.694;10.006;2023-03-14T08:12:06;0.25;;;0.20;;
66429;SDS011;53242;51.694;10.006;2023-03-14T08:14:28;3.25;;;0.75;;
66429;SDS011;53242;51.694;10.006;2023-03-14T08:16:51;2.17;;;0.70;;
66429;SDS011;53242;51.694;10.006;2023-03-14T08:19:13;0.75;;;0.40;;
66429;SDS011;53242;51.694;10.006;2023-03-14T08:21:36;2.65;;;0.40;;
66429;SDS011;53242;51.694;10.006;2023-03-14T08:23:58;4.47;;;0.73;;
66429;SDS011;53242;51.694;10.006;2023-03-14T08:26:21;2.05;;;0.63;;
66429;SDS011;53242;51.694;10.006;2023-03-14T08:28:43;2.75;;;0.40;;
66429;SDS011;53242;51.694;10.006;2023-03-14T08:31:06;3.22;;;0.75;;
66429;SDS011;53242;51.694;10.006;2023-03-14T08:33:28;0.63;;;0.35;;
66429;SDS011;53242;51.694;10.006;2023-03-14T08:35:52;1.95;;;0.80;;
66429;SDS011;53242;51.694;10.006;2023-03-14T08:38:15;0.40;;;0.40;;
66429;SDS011;53242;51.694;10.006;2023-03-14T08:40:38;2.17;;;0.60;;
66429;SDS011;53242;51.694;10.006;2023-03-14T08:43:00;0.80;;;0.30;;
66429;SDS011;53242;51.694;10.006;2023-03-14T08:45:22;2.75;;;0.40;;
66429;SDS011;53242;51.694;10.006;2023-03-14T08:47:47;1.33;;;0.55;;
66429;SDS011;53242;51.694;10.006;2023-03-14T08:50:09;0.95;;;0.40;;
66429;SDS011;53242;51.694;10.006;2023-03-14T08:52:32;3.40;;;1.00;;
66429;SDS011;53242;51.694;10.006;2023-03-14T08:54:55;1.27;;;0.50;;
66429;SDS011;53242;51.694;10.006;2023-03-14T08:57:17;0.85;;;0.40;;
66429;SDS011;53242;51.694;10.006;2023-03-14T08:59:40;1.98;;;0.50;;
66429;SDS011;53242;51.694;10.006;2023-03-14T09:02:02;1.23;;;0.43;;
66429;SDS011;53242;51.694;10.006;2023-03-14T09:04:27;2.05;;;0.68;;
66429;SDS011;53242;51.694;10.006;2023-03-14T09:06:50;0.60;;;0.30;;
66429;SDS011;53242;51.694;10.006;2023-03-14T09:09:12;0.80;;;0.45;;
66429;SDS011;53242;51.694;10.006;2023-03-14T09:11:35;1.73;;;0.50;;
66429;SDS011;53242;51.694;10.006;2023-03-14T09:13:58;0.73;;;0.50;;
66429;SDS011;53242;51.694;10.006;2023-03-14T09:16:20;1.98;;;0.50;;
66429;SDS011;53242;51.694;10.006;2023-03-14T09:18:43;0.28;;;0.28;;
66429;SDS011;53242;51.694;10.006;2023-03-14T09:21:05;1.15;;;0.43;;
66429;SDS011;53242;51.694;10.006;2023-03-14T09:23:28;0.65;;;0.40;;
66429;SDS011;53242;51.694;10.006;2023-03-14T09:25:54;1.02;;;0.50;;
66429;SDS011;53242;51.694;10.006;2023-03-14T09:28:20;1.65;;;0.43;;
66429;SDS011;53242;51.694;10.006;2023-03-14T09:30:42;1.50;;;0.35;;
66429;SDS011;53242;51.694;10.006;2023-03-14T09:33:05;0.63;;;0.40;;
66429;SDS011;53242;51.694;10.006;2023-03-14T09:35:27;0.43;;;0.30;;
66429;SDS011;53242;51.694;10.006;2023-03-14T09:37:50;1.85;;;0.63;;
66429;SDS011;53242;51.694;10.006;2023-03-14T09:40:14;0.80;;;0.40;;
66429;SDS011;53242;51.694;10.006;2023-03-14T09:42:38;0.35;;;0.32;;
66429;SDS011;53242;51.694;10.006;2023-03-14T09:45:03;0.93;;;0.40;;
66429;SDS011;53242;51.694;10.006;2023-03-14T09:47:28;1.00;;;0.30;;
66429;SDS011;53242;51.694;10.006;2023-03-14T09:49:51;1.45;;;0.50;;
66429;SDS011;53242;51.694;10.006;2023-03-14T09:52:16;0.55;;;0.38;;
66429;SDS011;53242;51.694;10.006;2023-03-14T09:54:53;1.27;;;0.25;;
66429;SDS011;53242;51.694;10.006;2023-03-14T09:57:20;0.73;;;0.20;;
66429;SDS011;53242;51.694;10.006;2023-03-14T09:59:46;0.30;;;0.20;;
66429;SDS011;53242;51.694;10.006;2023-03-14T10:02:26;1.67;;;0.10;;
66429;SDS011;53242;51.694;10.006;2023-03-14T10:04:55;1.52;;;0.40;;
66429;SDS011;53242;51.694;10.006;2023-03-14T10:07:18;0.30;;;0.30;;
66429;SDS011;53242;51.694;10.006;2023-03-14T10:09:45;0.47;;;0.25;;
66429;SDS011;53242;51.694;10.006;2023-03-14T10:12:10;0.22;;;0.13;;
66429;SDS011;53242;51.694;10.006;2023-03-14T10:14:34;0.65;;;0.30;;
66429;SDS011;53242;51.694;10.006;2023-03-14T10:17:05;2.20;;;0.52;;
66429;SDS011;53242;51.694;10.006;2023-03-14T10:19:33;0.60;;;0.30;;
66429;SDS011;53242;51.694;10.006;2023-03-14T10:21:57;1.65;;;0.20;;
66429;SDS011;53242;51.694;10.006;2023-03-14T10:24:33;1.20;;;0.60;;
66429;SDS011;53242;51.694;10.006;2023-03-14T10:27:04;0.35;;;0.28;;
66429;SDS011;53242;51.694;10.006;2023-03-14T10:29:29;0.77;;;0.30;;
66429;SDS011;53242;51.694;10.006;2023-03-14T10:31:57;6.45;;;0.50;;
66429;SDS011;53242;51.694;10.006;2023-03-14T10:34:26;0.88;;;0.47;;
66429;SDS011;53242;51.694;10.006;2023-03-14T10:36:59;1.77;;;0.22;;
66429;SDS011;53242;51.694;10.006;2023-03-14T10:39:30;0.57;;;0.20;;
66429;SDS011;53242;51.694;10.006;2023-03-14T10:42:21;0.65;;;0.20;;
66429;SDS011;53242;51.694;10.006;2023-03-14T10:44:47;0.20;;;0.20;;
66429;SDS011;53242;51.694;10.006;2023-03-14T10:47:20;0.10;;;0.10;;
66429;SDS011;53242;51.694;10.006;2023-03-14T10:49:45;0.90;;;0.28;;
66429;SDS011;53242;51.694;10.006;2023-03-14T10:54:30;1.25;;;0.20;;
66429;SDS011;53242;51.694;10.006;2023-03-14T10:57:00;0.25;;;0.25;;
66429;SDS011;53242;51.694;10.006;2023-03-14T10:59:29;0.82;;;0.30;;
66429;SDS011;53242;51.694;10.006;2023-03-14T11:02:07;0.20;;;0.20;;
66429;SDS011;53242;51.694;10.006;2023-03-14T11:07:41;2.15;;;0.38;;
66429;SDS011;53242;51.694;10.006;2023-03-14T11:10:14;0.45;;;0.43;;
66429;SDS011;53242;51.694;10.006;2023-03-14T11:12:58;0.45;;;0.40;;
66429;SDS011;53242;51.694;10.006;2023-03-14T11:23:30;0.60;;;0.30;;
66429;SDS011;53242;51.694;10.006;2023-03-14T11:26:03;1.17;;;0.40;;
66429;SDS011;53242;51.694;10.006;2023-03-14T11:28:37;1.92;;;0.57;;
66429;SDS011;53242;51.694;10.006;2023-03-14T11:31:47;0.75;;;0.30;;
66429;SDS011;53242;51.694;10.006;2023-03-14T11:34:01;0.38;;;0.30;;
66429;SDS011;53242;51.694;10.006;2023-03-14T11:36:31;1.27;;;0.47;;
66429;SDS011;53242;51.694;10.006;2023-03-14T11:38:59;1.55;;;0.70;;
66429;SDS011;53242;51.694;10.006;2023-03-14T11:43:58;0.40;;;0.25;;
66429;SDS011;53242;51.694;10.006;2023-03-14T11:46:24;0.73;;;0.40;;
66429;SDS011;53242;51.694;10.006;2023-03-14T11:51:50;0.40;;;0.40;;
66429;SDS011;53242;51.694;10.006;2023-03-14T11:54:19;0.63;;;0.30;;
66429;SDS011;53242;51.694;10.006;2023-03-14T11:56:53;1.80;;;0.43;;
66429;SDS011;53242;51.694;10.006;2023-03-14T11:59:27;0.85;;;0.20;;
66429;SDS011;53242;51.694;10.006;2023-03-14T12:01:57;1.30;;;0.30;;
66429;SDS011;53242;51.694;10.006;2023-03-14T12:06:49;1.40;;;0.40;;
66429;SDS011;53242;51.694;10.006;2023-03-14T12:09:12;2.28;;;0.40;;
66429;SDS011;53242;51.694;10.006;2023-03-14T12:14:25;0.45;;;0.20;;
66429;SDS011;53242;51.694;10.006;2023-03-14T12:16:50;0.65;;;0.30;;
66429;SDS011;53242;51.694;10.006;2023-03-14T12:21:48;1.65;;;0.50;;
66429;SDS011;53242;51.694;10.006;2023-03-14T12:24:21;7.40;;;1.25;;
66429;SDS011;53242;51.694;10.006;2023-03-14T12:26:54;2.88;;;0.68;;
66429;SDS011;53242;51.694;10.006;2023-03-14T12:29:20;3.30;;;0.60;;
66429;SDS011;53242;51.694;10.006;2023-03-14T12:31:44;1.33;;;0.60;;
66429;SDS011;53242;51.694;10.006;2023-03-14T12:41:51;0.10;;;0.10;;
66429;SDS011;53242;51.694;10.006;2023-03-14T12:44:37;0.08;;;0.05;;
66429;SDS011;53242;51.694;10.006;2023-03-14T12:48:05;0.20;;;0.13;;
66429;SDS011;53242;51.694;10.006;2023-03-14T12:49:58;1.38;;;0.40;;
66429;SDS011;53242;51.694;10.006;2023-03-14T12:52:33;1.55;;;0.43;;
66429;SDS011;53242;51.694;10.006;2023-03-14T12:55:06;0.60;;;0.15;;
66429;SDS011;53242;51.694;10.006;2023-03-14T12:57:58;0.20;;;0.10;;
66429;SDS011;53242;51.694;10.006;2023-03-14T13:00:35;0.32;;;0.15;;
66429;SDS011;53242;51.694;10.006;2023-03-14T13:03:17;0.28;;;0.15;;
66429;SDS011;53242;51.694;10.006;2023-03-14T13:05:51;0.00;;;0.00;;
66429;SDS011;53242;51.694;10.006;2023-03-14T13:08:15;0.00;;;0.00;;
66429;SDS011;53242;51.694;10.006;2023-03-14T13:10:55;0.00;;;0.00;;
66429;SDS011;53242;51.694;10.006;2023-03-14T13:13:21;0.40;;;0.10;;
66429;SDS011;53242;51.694;10.006;2023-03-14T13:15:45;0.03;;;0.00;;
66429;SDS011;53242;51.694;10.006;2023-03-14T13:18:14;0.08;;;0.08;;
66429;SDS011;53242;51.694;10.006;2023-03-14T13:23:24;0.03;;;0.03;;
66429;SDS011;53242;51.694;10.006;2023-03-14T13:25:48;0.65;;;0.10;;
66429;SDS011;53242;51.694;10.006;2023-03-14T13:28:11;0.20;;;0.00;;
66429;SDS011;53242;51.694;10.006;2023-03-14T13:30:39;0.65;;;0.20;;
66429;SDS011;53242;51.694;10.006;2023-03-14T13:33:20;0.52;;;0.08;;
66429;SDS011;53242;51.694;10.006;2023-03-14T13:35:44;0.10;;;0.10;;
66429;SDS011;53242;51.694;10.006;2023-03-14T13:38:19;0.03;;;0.03;;
66429;SDS011;53242;51.694;10.006;2023-03-14T13:40:45;0.05;;;0.05;;
66429;SDS011;53242;51.694;10.006;2023-03-14T13:43:13;0.22;;;0.15;;
66429;SDS011;53242;51.694;10.006;2023-03-14T13:48:26;1.40;;;0.30;;
66429;SDS011;53242;51.694;10.006;2023-03-14T13:50:55;0.77;;;0.30;;
66429;SDS011;53242;51.694;10.006;2023-03-14T13:53:20;0.90;;;0.50;;
66429;SDS011;53242;51.694;10.006;2023-03-14T13:55:43;1.88;;;0.40;;
66429;SDS011;53242;51.694;10.006;2023-03-14T13:58:10;1.30;;;0.30;;
66429;SDS011;53242;51.694;10.006;2023-03-14T14:00:35;0.60;;;0.30;;
66429;SDS011;53242;51.694;10.006;2023-03-14T14:02:58;0.60;;;0.22;;
66429;SDS011;53242;51.694;10.006;2023-03-14T14:05:22;1.35;;;0.30;;
66429;SDS011;53242;51.694;10.006;2023-03-14T14:07:48;0.93;;;0.28;;
66429;SDS011;53242;51.694;10.006;2023-03-14T14:10:13;1.00;;;0.30;;
66429;SDS011;53242;51.694;10.006;2023-03-14T14:12:39;2.85;;;0.52;;
66429;SDS011;53242;51.694;10.006;2023-03-14T14:15:11;1.13;;;0.43;;
66429;SDS011;53242;51.694;10.006;2023-03-14T14:17:39;1.40;;;0.32;;
66429;SDS011;53242;51.694;10.006;2023-03-14T14:20:07;1.38;;;0.30;;
66429;SDS011;53242;51.694;10.006;2023-03-14T14:22:40;0.85;;;0.50;;
66429;SDS011;53242;51.694;10.006;2023-03-14T14:25:02;8.15;;;0.77;;
66429;SDS011;53242;51.694;10.006;2023-03-14T14:27:39;0.65;;;0.40;;
66429;SDS011;53242;51.694;10.006;2023-03-14T14:30:05;3.03;;;1.13;;
66429;SDS011;53242;51.694;10.006;2023-03-14T14:32:47;3.22;;;0.85;;
66429;SDS011;53242;51.694;10.006;2023-03-14T14:35:20;2.58;;;0.75;;
66429;SDS011;53242;51.694;10.006;2023-03-14T14:37:45;0.98;;;0.20;;
66429;SDS011;53242;51.694;10.006;2023-03-14T14:40:08;2.30;;;0.47;;
66429;SDS011;53242;51.694;10.006;2023-03-14T14:42:39;2.08;;;0.50;;
66429;SDS011;53242;51.694;10.006;2023-03-14T14:45:03;3.40;;;0.45;;
66429;SDS011;53242;51.694;10.006;2023-03-14T14:47:29;3.75;;;0.98;;
66429;SDS011;53242;51.694;10.006;2023-03-14T14:49:52;5.13;;;1.02;;
66429;SDS011;53242;51.694;10.006;2023-03-14T14:54:44;2.83;;;0.98;;
66429;SDS011;53242;51.694;10.006;2023-03-14T14:57:28;3.42;;;0.90;;
66429;SDS011;53242;51.694;10.006;2023-03-14T14:59:54;2.22;;;0.85;;
66429;SDS011;53242;51.694;10.006;2023-03-14T15:05:13;3.83;;;1.00;;
66429;SDS011;53242;51.694;10.006;2023-03-14T15:07:37;3.85;;;1.00;;
66429;SDS011;53242;51.694;10.006;2023-03-14T15:09:59;3.05;;;0.93;;
66429;SDS011;53242;51.694;10.006;2023-03-14T15:12:22;3.75;;;1.15;;
66429;SDS011;53242;51.694;10.006;2023-03-14T15:14:46;8.02;;;1.50;;
66429;SDS011;53242;51.694;10.006;2023-03-14T15:17:10;3.55;;;1.00;;
66429;SDS011;53242;51.694;10.006;2023-03-14T15:19:33;3.60;;;1.48;;
66429;SDS011;53242;51.694;10.006;2023-03-14T15:21:56;2.35;;;1.02;;
66429;SDS011;53242;51.694;10.006;2023-03-14T15:24:18;5.85;;;1.48;;
66429;SDS011;53242;51.694;10.006;2023-03-14T15:26:41;10.27;;;1.52;;
66429;SDS011;53242;51.694;10.006;2023-03-14T15:29:03;4.43;;;1.23;;
66429;SDS011;53242;51.694;10.006;2023-03-14T15:31:27;2.80;;;0.50;;
66429;SDS011;53242;51.694;10.006;2023-03-14T15:33:50;6.20;;;0.80;;